sensor_id;sensor_type;location;lat;lon;timestamp;pressure;altitude;pressure_sealevel;temperature;humidity
35848;BME280;22332;51.954;20.118;2023-07-13T00:02:43;99735.20;;;18.68;82.77
35848;BME280;22332;51.954;20.118;2023-07-13T00:05:59;99733.71;;;18.66;82.91
35848;BME280;22332;51.954;20.118;2023-07-13T00:09:05;99725.80;;;18.64;83.04
35848;BME280;22332;51.954;20.118;2023-07-13T00:12:26;99719.96;;;18.65;83.17
35848;BME280;22332;51.954;20.118;2023-07-13T00:15:34;99720.97;;;18.63;83.16
35848;BME280;22332;51.954;20.118;2023-07-13T00:18:40;99717.09;;;18.60;83.00
35848;BME280;22332;51.954;20.118;2023-07-13T00:21:45;99714.06;;;18.59;83.17
35848;BME280;22332;51.954;20.118;2023-07-13T00:24:51;99712.41;;;18.58;83.13
35848;BME280;22332;51.954;20.118;2023-07-13T00:27:57;99715.66;;;18.56;82.95
35848;BME280;22332;51.954;20.118;2023-07-13T00:31:03;99714.24;;;18.50;83.07
35848;BME280;22332;51.954;20.118;2023-07-13T00:34:09;99711.84;;;18.49;83.42
35848;BME280;22332;51.954;20.118;2023-07-13T00:37:14;99710.48;;;18.49;83.17
35848;BME280;22332;51.954;20.118;2023-07-13T00:40:20;99713.73;;;18.49;83.25
35848;BME280;22332;51.954;20.118;2023-07-13T00:43:27;99714.43;;;18.49;83.26
35848;BME280;22332;51.954;20.118;2023-07-13T00:46:34;99714.39;;;18.49;83.30
35848;BME280;22332;51.954;20.118;2023-07-13T00:49:40;99717.42;;;18.47;83.40
35848;BME280;22332;51.954;20.118;2023-07-13T00:52:48;99720.83;;;18.47;83.61
35848;BME280;22332;51.954;20.118;2023-07-13T00:55:55;99723.72;;;18.45;83.41
35848;BME280;22332;51.954;20.118;2023-07-13T00:59:04;99724.67;;;18.43;83.55
35848;BME280;22332;51.954;20.118;2023-07-13T01:02:12;99724.09;;;18.44;83.77
35848;BME280;22332;51.954;20.118;2023-07-13T01:05:19;99722.17;;;18.44;83.84
35848;BME280;22332;51.954;20.118;2023-07-13T01:08:25;99724.13;;;18.41;83.76
35848;BME280;22332;51.954;20.118;2023-07-13T01:11:30;99726.27;;;18.41;83.93
35848;BME280;22332;51.954;20.118;2023-07-13T01:14:36;99734.42;;;18.39;83.90
35848;BME280;22332;51.954;20.118;2023-07-13T01:17:43;99733.92;;;18.40;84.06
35848;BME280;22332;51.954;20.118;2023-07-13T01:20:53;99736.05;;;18.40;84.03
35848;BME280;22332;51.954;20.118;2023-07-13T01:23:59;99739.13;;;18.39;84.14
35848;BME280;22332;51.954;20.118;2023-07-13T01:27:06;99732.52;;;18.40;84.07
35848;BME280;22332;51.954;20.118;2023-07-13T01:30:13;99731.70;;;18.37;83.84
35848;BME280;22332;51.954;20.118;2023-07-13T01:33:19;99724.77;;;18.36;84.28
35848;BME280;22332;51.954;20.118;2023-07-13T01:36:24;99719.48;;;18.38;84.23
35848;BME280;22332;51.954;20.118;2023-07-13T01:39:30;99717.52;;;18.39;84.17
35848;BME280;22332;51.954;20.118;2023-07-13T01:42:36;99718.52;;;18.37;84.46
35848;BME280;22332;51.954;20.118;2023-07-13T01:45:46;99720.50;;;18.41;84.71
35848;BME280;22332;51.954;20.118;2023-07-13T01:48:52;99720.84;;;18.43;84.59
35848;BME280;22332;51.954;20.118;2023-07-13T01:51:57;99720.56;;;18.43;84.42
35848;BME280;22332;51.954;20.118;2023-07-13T01:55:04;99720.63;;;18.40;84.28
35848;BME280;22332;51.954;20.118;2023-07-13T01:58:09;99724.60;;;18.36;84.34
35848;BME280;22332;51.954;20.118;2023-07-13T02:01:15;99728.99;;;18.32;84.30
35848;BME280;22332;51.954;20.118;2023-07-13T02:04:20;99727.70;;;18.31;84.35
35848;BME280;22332;51.954;20.118;2023-07-13T02:07:27;99728.25;;;18.32;84.46
35848;BME280;22332;51.954;20.118;2023-07-13T02:10:32;99728.48;;;18.33;84.54
35848;BME280;22332;51.954;20.118;2023-07-13T02:13:38;99725.12;;;18.33;84.26
35848;BME280;22332;51.954;20.118;2023-07-13T02:16:43;99724.15;;;18.27;84.29
35848;BME280;22332;51.954;20.118;2023-07-13T02:19:49;99724.60;;;18.22;84.49
35848;BME280;22332;51.954;20.118;2023-07-13T02:22:54;99725.19;;;18.19;84.50
35848;BME280;22332;51.954;20.118;2023-07-13T02:26:01;99719.52;;;18.18;84.32
35848;BME280;22332;51.954;20.118;2023-07-13T02:29:07;99723.86;;;18.14;84.36
35848;BME280;22332;51.954;20.118;2023-07-13T02:32:13;99720.54;;;18.12;84.45
35848;BME280;22332;51.954;20.118;2023-07-13T02:35:19;99721.47;;;18.09;84.36
35848;BME280;22332;51.954;20.118;2023-07-13T02:38:25;99719.73;;;18.07;84.43
35848;BME280;22332;51.954;20.118;2023-07-13T02:41:31;99717.33;;;18.05;84.38
35848;BME280;22332;51.954;20.118;2023-07-13T02:44:36;99718.24;;;18.05;84.80
35848;BME280;22332;51.954;20.118;2023-07-13T02:47:43;99719.37;;;18.06;84.66
35848;BME280;22332;51.954;20.118;2023-07-13T02:50:49;99720.05;;;18.02;84.32
35848;BME280;22332;51.954;20.118;2023-07-13T02:53:54;99722.15;;;17.96;84.23
35848;BME280;22332;51.954;20.118;2023-07-13T02:57:00;99723.17;;;17.93;84.31
35848;BME280;22332;51.954;20.118;2023-07-13T03:00:08;99727.27;;;17.91;84.43
35848;BME280;22332;51.954;20.118;2023-07-13T03:03:15;99724.23;;;17.88;84.23
35848;BME280;22332;51.954;20.118;2023-07-13T03:06:21;99728.55;;;17.82;84.29
35848;BME280;22332;51.954;20.118;2023-07-13T03:09:29;99729.87;;;17.79;84.45
35848;BME280;22332;51.954;20.118;2023-07-13T03:12:38;99730.58;;;17.78;84.36
35848;BME280;22332;51.954;20.118;2023-07-13T03:15:49;99723.82;;;17.76;84.30
35848;BME280;22332;51.954;20.118;2023-07-13T03:18:55;99721.83;;;17.78;84.36
35848;BME280;22332;51.954;20.118;2023-07-13T03:22:01;99713.39;;;17.79;84.40
35848;BME280;22332;51.954;20.118;2023-07-13T03:25:08;99710.32;;;17.80;84.38
35848;BME280;22332;51.954;20.118;2023-07-13T03:28:15;99711.67;;;17.91;84.66
35848;BME280;22332;51.954;20.118;2023-07-13T03:31:24;99710.39;;;18.07;84.57
35848;BME280;22332;51.954;20.118;2023-07-13T03:34:30;99708.02;;;18.21;84.61
35848;BME280;22332;51.954;20.118;2023-07-13T03:37:36;99706.64;;;18.36;84.38
35848;BME280;22332;51.954;20.118;2023-07-13T03:40:47;99713.43;;;18.59;84.59
35848;BME280;22332;51.954;20.118;2023-07-13T03:43:53;99718.30;;;18.88;84.64
35848;BME280;22332;51.954;20.118;2023-07-13T03:47:00;99728.94;;;19.15;84.38
35848;BME280;22332;51.954;20.118;2023-07-13T03:50:07;99735.16;;;19.39;84.55
35848;BME280;22332;51.954;20.118;2023-07-13T03:53:13;99730.49;;;19.67;84.15
35848;BME280;22332;51.954;20.118;2023-07-13T03:56:20;99728.66;;;19.70;83.76
35848;BME280;22332;51.954;20.118;2023-07-13T03:59:25;99730.80;;;19.70;84.17
35848;BME280;22332;51.954;20.118;2023-07-13T04:05:36;99735.85;;;19.89;84.56
35848;BME280;22332;51.954;20.118;2023-07-13T04:08:43;99742.42;;;19.95;84.76
35848;BME280;22332;51.954;20.118;2023-07-13T04:11:49;99738.92;;;19.98;84.65
35848;BME280;22332;51.954;20.118;2023-07-13T04:14:54;99742.27;;;19.95;84.41
35848;BME280;22332;51.954;20.118;2023-07-13T04:18:00;99743.30;;;19.92;84.48
35848;BME280;22332;51.954;20.118;2023-07-13T04:21:07;99743.58;;;19.90;84.79
35848;BME280;22332;51.954;20.118;2023-07-13T04:24:13;99748.02;;;19.92;84.78
35848;BME280;22332;51.954;20.118;2023-07-13T04:27:19;99749.73;;;19.88;84.74
35848;BME280;22332;51.954;20.118;2023-07-13T04:30:25;99759.12;;;19.87;85.07
35848;BME280;22332;51.954;20.118;2023-07-13T04:33:30;99761.23;;;19.85;85.33
35848;BME280;22332;51.954;20.118;2023-07-13T04:36:36;99769.83;;;19.86;85.57
35848;BME280;22332;51.954;20.118;2023-07-13T04:39:41;99774.91;;;19.90;85.78
35848;BME280;22332;51.954;20.118;2023-07-13T04:42:47;99778.58;;;19.93;85.89
35848;BME280;22332;51.954;20.118;2023-07-13T04:45:53;99782.39;;;19.99;86.02
35848;BME280;22332;51.954;20.118;2023-07-13T04:48:59;99789.11;;;20.05;86.06
35848;BME280;22332;51.954;20.118;2023-07-13T04:52:07;99787.80;;;20.10;86.17
35848;BME280;22332;51.954;20.118;2023-07-13T04:55:12;99783.48;;;20.18;86.35
35848;BME280;22332;51.954;20.118;2023-07-13T04:58:18;99780.86;;;20.22;86.54
35848;BME280;22332;51.954;20.118;2023-07-13T05:01:24;99773.58;;;20.23;86.50
35848;BME280;22332;51.954;20.118;2023-07-13T05:04:29;99771.70;;;20.27;86.61
35848;BME280;22332;51.954;20.118;2023-07-13T05:07:35;99769.18;;;20.34;86.78
35848;BME280;22332;51.954;20.118;2023-07-13T05:10:40;99776.98;;;20.44;87.05
35848;BME280;22332;51.954;20.118;2023-07-13T05:13:46;99781.89;;;20.55;87.22
35848;BME280;22332;51.954;20.118;2023-07-13T05:16:51;99788.85;;;20.65;87.16
35848;BME280;22332;51.954;20.118;2023-07-13T05:19:57;99787.33;;;20.75;87.27
35848;BME280;22332;51.954;20.118;2023-07-13T05:23:02;99792.16;;;20.86;87.14
35848;BME280;22332;51.954;20.118;2023-07-13T05:26:08;99791.86;;;21.00;87.09
35848;BME280;22332;51.954;20.118;2023-07-13T05:29:13;99796.91;;;21.18;87.17
35848;BME280;22332;51.954;20.118;2023-07-13T05:32:20;99801.60;;;21.37;86.95
35848;BME280;22332;51.954;20.118;2023-07-13T05:35:25;99800.77;;;21.53;87.27
35848;BME280;22332;51.954;20.118;2023-07-13T05:38:31;99793.50;;;21.69;87.07
35848;BME280;22332;51.954;20.118;2023-07-13T05:41:37;99784.58;;;21.81;86.98
35848;BME280;22332;51.954;20.118;2023-07-13T05:44:43;99786.30;;;21.90;86.83
35848;BME280;22332;51.954;20.118;2023-07-13T05:47:48;99791.39;;;21.94;86.50
35848;BME280;22332;51.954;20.118;2023-07-13T05:50:54;99791.52;;;21.95;86.66
35848;BME280;22332;51.954;20.118;2023-07-13T05:53:59;99790.80;;;22.05;87.30
35848;BME280;22332;51.954;20.118;2023-07-13T05:57:06;99793.98;;;22.30;87.17
35848;BME280;22332;51.954;20.118;2023-07-13T06:00:14;99795.09;;;22.59;87.11
35848;BME280;22332;51.954;20.118;2023-07-13T06:03:20;99795.02;;;22.77;86.43
35848;BME280;22332;51.954;20.118;2023-07-13T06:06:25;99799.49;;;22.96;86.64
35848;BME280;22332;51.954;20.118;2023-07-13T06:09:31;99796.23;;;23.23;86.55
35848;BME280;22332;51.954;20.118;2023-07-13T06:12:36;99797.10;;;23.48;86.16
35848;BME280;22332;51.954;20.118;2023-07-13T06:15:42;99792.23;;;23.67;86.04
35848;BME280;22332;51.954;20.118;2023-07-13T06:18:48;99792.77;;;23.76;85.66
35848;BME280;22332;51.954;20.118;2023-07-13T06:21:53;99795.25;;;23.89;85.81
35848;BME280;22332;51.954;20.118;2023-07-13T06:24:59;99791.04;;;24.06;85.66
35848;BME280;22332;51.954;20.118;2023-07-13T06:28:04;99789.69;;;24.26;85.49
35848;BME280;22332;51.954;20.118;2023-07-13T06:31:11;99785.95;;;24.37;85.30
35848;BME280;22332;51.954;20.118;2023-07-13T06:34:17;99789.37;;;24.35;84.93
35848;BME280;22332;51.954;20.118;2023-07-13T06:37:23;99794.44;;;24.30;84.54
35848;BME280;22332;51.954;20.118;2023-07-13T06:40:29;99797.54;;;24.29;84.59
35848;BME280;22332;51.954;20.118;2023-07-13T06:43:34;99796.85;;;24.36;84.23
35848;BME280;22332;51.954;20.118;2023-07-13T06:46:40;99793.00;;;24.42;84.13
35848;BME280;22332;51.954;20.118;2023-07-13T06:49:45;99792.24;;;24.52;83.39
35848;BME280;22332;51.954;20.118;2023-07-13T06:52:51;99786.02;;;24.59;83.60
35848;BME280;22332;51.954;20.118;2023-07-13T06:55:57;99781.13;;;24.62;83.42
35848;BME280;22332;51.954;20.118;2023-07-13T06:59:02;99779.81;;;24.63;83.08
35848;BME280;22332;51.954;20.118;2023-07-13T07:02:10;99777.84;;;24.61;83.53
35848;BME280;22332;51.954;20.118;2023-07-13T07:05:16;99777.73;;;24.66;83.56
35848;BME280;22332;51.954;20.118;2023-07-13T07:08:21;99779.92;;;24.73;82.55
35848;BME280;22332;51.954;20.118;2023-07-13T07:11:27;99779.02;;;24.77;81.70
35848;BME280;22332;51.954;20.118;2023-07-13T07:14:33;99778.11;;;24.84;81.47
35848;BME280;22332;51.954;20.118;2023-07-13T07:17:39;99777.52;;;24.90;81.00
35848;BME280;22332;51.954;20.118;2023-07-13T07:20:44;99780.89;;;24.90;80.19
35848;BME280;22332;51.954;20.118;2023-07-13T07:23:51;99779.34;;;24.87;79.95
35848;BME280;22332;51.954;20.118;2023-07-13T07:26:57;99777.67;;;24.90;80.43
35848;BME280;22332;51.954;20.118;2023-07-13T07:30:03;99780.52;;;25.05;80.38
35848;BME280;22332;51.954;20.118;2023-07-13T07:33:08;99781.41;;;25.19;79.86
35848;BME280;22332;51.954;20.118;2023-07-13T07:36:14;99783.98;;;25.32;79.25
35848;BME280;22332;51.954;20.118;2023-07-13T07:39:20;99787.75;;;25.46;79.37
35848;BME280;22332;51.954;20.118;2023-07-13T07:42:26;99786.12;;;25.58;79.44
35848;BME280;22332;51.954;20.118;2023-07-13T07:45:31;99782.71;;;25.64;78.81
35848;BME280;22332;51.954;20.118;2023-07-13T07:48:37;99780.98;;;25.65;78.83
35848;BME280;22332;51.954;20.118;2023-07-13T07:51:43;99779.42;;;25.62;77.68
35848;BME280;22332;51.954;20.118;2023-07-13T07:54:48;99785.66;;;25.62;77.53
35848;BME280;22332;51.954;20.118;2023-07-13T07:57:54;99788.41;;;25.67;75.63
35848;BME280;22332;51.954;20.118;2023-07-13T08:01:05;99793.17;;;25.78;77.31
35848;BME280;22332;51.954;20.118;2023-07-13T08:04:11;99790.09;;;25.98;77.58
35848;BME280;22332;51.954;20.118;2023-07-13T08:07:20;99789.71;;;26.14;77.08
35848;BME280;22332;51.954;20.118;2023-07-13T08:10:26;99792.70;;;26.22;76.95
35848;BME280;22332;51.954;20.118;2023-07-13T08:13:32;99793.31;;;26.31;76.81
35848;BME280;22332;51.954;20.118;2023-07-13T08:16:38;99795.10;;;26.41;76.63
35848;BME280;22332;51.954;20.118;2023-07-13T08:19:43;99797.09;;;26.47;76.04
35848;BME280;22332;51.954;20.118;2023-07-13T08:22:49;99797.23;;;26.59;75.86
35848;BME280;22332;51.954;20.118;2023-07-13T08:25:55;99802.15;;;26.74;75.13
35848;BME280;22332;51.954;20.118;2023-07-13T08:29:01;99806.83;;;26.88;75.09
35848;BME280;22332;51.954;20.118;2023-07-13T08:32:09;99815.54;;;27.01;74.68
35848;BME280;22332;51.954;20.118;2023-07-13T08:35:15;99818.01;;;27.01;74.31
35848;BME280;22332;51.954;20.118;2023-07-13T08:38:21;99817.67;;;26.97;73.05
35848;BME280;22332;51.954;20.118;2023-07-13T08:41:27;99819.77;;;26.94;73.87
35848;BME280;22332;51.954;20.118;2023-07-13T08:44:46;99822.92;;;26.92;72.81
35848;BME280;22332;51.954;20.118;2023-07-13T08:47:59;99826.75;;;26.91;72.93
35848;BME280;22332;51.954;20.118;2023-07-13T08:51:13;99825.01;;;26.91;72.22
35848;BME280;22332;51.954;20.118;2023-07-13T08:54:26;99830.48;;;26.85;72.08
35848;BME280;22332;51.954;20.118;2023-07-13T08:57:34;99829.01;;;26.65;71.59
35848;BME280;22332;51.954;20.118;2023-07-13T09:00:46;99833.55;;;26.34;72.16
35848;BME280;22332;51.954;20.118;2023-07-13T09:03:59;99832.19;;;26.09;72.56
35848;BME280;22332;51.954;20.118;2023-07-13T09:07:14;99833.30;;;25.86;72.88
35848;BME280;22332;51.954;20.118;2023-07-13T09:10:28;99833.33;;;25.75;73.12
35848;BME280;22332;51.954;20.118;2023-07-13T09:13:33;99838.15;;;25.59;73.41
35848;BME280;22332;51.954;20.118;2023-07-13T09:16:42;99839.13;;;25.50;73.41
35848;BME280;22332;51.954;20.118;2023-07-13T09:19:54;99837.42;;;25.41;73.34
35848;BME280;22332;51.954;20.118;2023-07-13T09:23:07;99835.79;;;25.36;73.97
35848;BME280;22332;51.954;20.118;2023-07-13T09:26:19;99831.34;;;25.38;74.04
35848;BME280;22332;51.954;20.118;2023-07-13T09:29:29;99829.27;;;25.34;72.68
35848;BME280;22332;51.954;20.118;2023-07-13T09:32:37;99828.17;;;25.31;73.25
35848;BME280;22332;51.954;20.118;2023-07-13T09:35:45;99825.27;;;25.31;73.14
35848;BME280;22332;51.954;20.118;2023-07-13T09:39:02;99829.88;;;25.33;73.09
35848;BME280;22332;51.954;20.118;2023-07-13T09:42:17;99830.39;;;25.35;73.32
35848;BME280;22332;51.954;20.118;2023-07-13T09:45:34;99831.52;;;25.34;73.11
35848;BME280;22332;51.954;20.118;2023-07-13T09:48:43;99833.20;;;25.27;72.90
35848;BME280;22332;51.954;20.118;2023-07-13T09:51:49;99834.11;;;25.14;72.23
35848;BME280;22332;51.954;20.118;2023-07-13T09:55:02;99833.63;;;25.03;72.61
35848;BME280;22332;51.954;20.118;2023-07-13T09:58:12;99832.60;;;25.03;72.85
35848;BME280;22332;51.954;20.118;2023-07-13T10:01:33;99832.98;;;25.15;72.48
35848;BME280;22332;51.954;20.118;2023-07-13T10:04:39;99849.98;;;25.01;72.23
35848;BME280;22332;51.954;20.118;2023-07-13T10:07:45;99842.37;;;24.66;72.63
35848;BME280;22332;51.954;20.118;2023-07-13T10:10:58;99846.35;;;24.39;72.95
35848;BME280;22332;51.954;20.118;2023-07-13T10:14:11;99841.66;;;24.26;72.41
35848;BME280;22332;51.954;20.118;2023-07-13T10:17:19;99835.81;;;24.28;72.92
35848;BME280;22332;51.954;20.118;2023-07-13T10:20:28;99827.63;;;24.46;72.47
35848;BME280;22332;51.954;20.118;2023-07-13T10:23:34;99823.05;;;24.64;71.27
35848;BME280;22332;51.954;20.118;2023-07-13T10:26:45;99821.48;;;24.77;70.52
35848;BME280;22332;51.954;20.118;2023-07-13T10:29:51;99820.31;;;24.75;69.52
35848;BME280;22332;51.954;20.118;2023-07-13T10:33:01;99816.32;;;24.79;70.65
35848;BME280;22332;51.954;20.118;2023-07-13T10:36:27;99815.63;;;24.88;71.33
35848;BME280;22332;51.954;20.118;2023-07-13T10:39:35;99814.27;;;24.99;71.13
35848;BME280;22332;51.954;20.118;2023-07-13T10:42:44;99811.78;;;24.79;70.98
35848;BME280;22332;51.954;20.118;2023-07-13T10:45:52;99813.29;;;24.59;71.31
35848;BME280;22332;51.954;20.118;2023-07-13T10:49:02;99814.30;;;24.52;71.88
35848;BME280;22332;51.954;20.118;2023-07-13T10:52:40;99814.78;;;24.53;72.06
35848;BME280;22332;51.954;20.118;2023-07-13T10:55:58;99826.65;;;24.33;72.38
35848;BME280;22332;51.954;20.118;2023-07-13T10:59:12;99827.88;;;24.18;72.89
35848;BME280;22332;51.954;20.118;2023-07-13T11:02:26;99824.73;;;24.11;72.87
35848;BME280;22332;51.954;20.118;2023-07-13T11:05:34;99831.35;;;24.08;73.11
35848;BME280;22332;51.954;20.118;2023-07-13T11:08:53;99836.61;;;24.05;73.38
35848;BME280;22332;51.954;20.118;2023-07-13T11:12:00;99843.55;;;24.03;73.14
35848;BME280;22332;51.954;20.118;2023-07-13T11:15:12;99845.50;;;24.02;72.98
35848;BME280;22332;51.954;20.118;2023-07-13T11:18:24;99850.46;;;23.98;72.28
35848;BME280;22332;51.954;20.118;2023-07-13T11:21:30;99851.77;;;23.90;72.20
35848;BME280;22332;51.954;20.118;2023-07-13T11:24:51;99856.06;;;23.89;72.13
35848;BME280;22332;51.954;20.118;2023-07-13T11:28:21;99863.60;;;23.86;71.52
35848;BME280;22332;51.954;20.118;2023-07-13T11:31:27;99870.65;;;23.78;70.83
35848;BME280;22332;51.954;20.118;2023-07-13T11:34:40;99877.23;;;23.75;70.40
35848;BME280;22332;51.954;20.118;2023-07-13T11:37:47;99881.51;;;23.69;70.18
35848;BME280;22332;51.954;20.118;2023-07-13T11:40:55;99882.42;;;23.69;70.95
35848;BME280;22332;51.954;20.118;2023-07-13T11:44:13;99883.23;;;23.75;71.33
35848;BME280;22332;51.954;20.118;2023-07-13T11:47:20;99885.47;;;23.80;71.23
35848;BME280;22332;51.954;20.118;2023-07-13T11:50:27;99885.63;;;23.92;71.66
35848;BME280;22332;51.954;20.118;2023-07-13T11:53:44;99880.13;;;24.11;71.72
35848;BME280;22332;51.954;20.118;2023-07-13T11:56:50;99883.93;;;24.30;70.86
35848;BME280;22332;51.954;20.118;2023-07-13T11:59:57;99891.40;;;24.34;70.43
35848;BME280;22332;51.954;20.118;2023-07-13T12:03:04;99894.19;;;24.40;70.08
35848;BME280;22332;51.954;20.118;2023-07-13T12:06:23;99894.27;;;24.41;68.87
35848;BME280;22332;51.954;20.118;2023-07-13T12:09:30;99892.43;;;24.39;68.54
35848;BME280;22332;51.954;20.118;2023-07-13T12:12:36;99896.72;;;24.42;69.10
35848;BME280;22332;51.954;20.118;2023-07-13T12:15:45;99895.46;;;24.45;68.96
35848;BME280;22332;51.954;20.118;2023-07-13T12:18:53;99894.81;;;24.53;69.60
35848;BME280;22332;51.954;20.118;2023-07-13T12:22:00;99891.57;;;24.59;69.22
35848;BME280;22332;51.954;20.118;2023-07-13T12:25:08;99895.44;;;24.54;68.80
35848;BME280;22332;51.954;20.118;2023-07-13T12:28:33;99899.13;;;24.46;68.72
35848;BME280;22332;51.954;20.118;2023-07-13T12:31:42;99906.40;;;24.26;67.88
35848;BME280;22332;51.954;20.118;2023-07-13T12:35:03;99906.43;;;24.09;68.58
35848;BME280;22332;51.954;20.118;2023-07-13T12:38:13;99900.22;;;24.05;69.23
35848;BME280;22332;51.954;20.118;2023-07-13T12:41:18;99895.05;;;24.10;69.62
35848;BME280;22332;51.954;20.118;2023-07-13T12:44:28;99897.60;;;24.13;68.96
35848;BME280;22332;51.954;20.118;2023-07-13T12:47:43;99900.23;;;24.10;68.75
35848;BME280;22332;51.954;20.118;2023-07-13T12:50:50;99902.77;;;24.12;69.41
35848;BME280;22332;51.954;20.118;2023-07-13T12:53:59;99902.19;;;24.09;67.83
35848;BME280;22332;51.954;20.118;2023-07-13T12:57:16;99899.80;;;23.98;68.26
35848;BME280;22332;51.954;20.118;2023-07-13T13:00:27;99907.39;;;23.92;68.52
35848;BME280;22332;51.954;20.118;2023-07-13T13:03:34;99905.40;;;23.87;69.21
35848;BME280;22332;51.954;20.118;2023-07-13T13:06:40;99911.55;;;23.82;69.69
35848;BME280;22332;51.954;20.118;2023-07-13T13:09:47;99905.39;;;23.76;70.12
35848;BME280;22332;51.954;20.118;2023-07-13T13:12:53;99908.77;;;23.77;69.72
35848;BME280;22332;51.954;20.118;2023-07-13T13:16:04;99914.30;;;23.84;69.39
35848;BME280;22332;51.954;20.118;2023-07-13T13:19:15;99915.41;;;23.89;68.94
35848;BME280;22332;51.954;20.118;2023-07-13T13:22:21;99907.13;;;23.94;69.21
35848;BME280;22332;51.954;20.118;2023-07-13T13:25:27;99897.23;;;23.99;69.10
35848;BME280;22332;51.954;20.118;2023-07-13T13:28:33;99893.29;;;24.02;68.70
35848;BME280;22332;51.954;20.118;2023-07-13T13:31:39;99898.39;;;24.04;68.73
35848;BME280;22332;51.954;20.118;2023-07-13T13:34:45;99906.20;;;24.04;68.61
35848;BME280;22332;51.954;20.118;2023-07-13T13:37:50;99903.16;;;24.09;68.44
35848;BME280;22332;51.954;20.118;2023-07-13T13:40:56;99900.54;;;24.16;68.52
35848;BME280;22332;51.954;20.118;2023-07-13T13:44:01;99896.79;;;24.29;68.35
35848;BME280;22332;51.954;20.118;2023-07-13T13:47:21;99894.81;;;24.41;68.17
35848;BME280;22332;51.954;20.118;2023-07-13T13:50:33;99899.49;;;24.56;67.91
35848;BME280;22332;51.954;20.118;2023-07-13T13:53:38;99900.73;;;24.68;67.56
35848;BME280;22332;51.954;20.118;2023-07-13T13:56:46;99902.27;;;24.78;67.59
35848;BME280;22332;51.954;20.118;2023-07-13T13:59:52;99909.86;;;24.86;67.34
35848;BME280;22332;51.954;20.118;2023-07-13T14:02:58;99918.42;;;24.89;67.12
35848;BME280;22332;51.954;20.118;2023-07-13T14:06:04;99917.19;;;24.85;66.92
35848;BME280;22332;51.954;20.118;2023-07-13T14:09:12;99917.38;;;24.79;67.08
35848;BME280;22332;51.954;20.118;2023-07-13T14:12:19;99920.00;;;24.74;66.98
35848;BME280;22332;51.954;20.118;2023-07-13T14:15:26;99924.54;;;24.69;67.06
35848;BME280;22332;51.954;20.118;2023-07-13T14:18:32;99929.34;;;24.65;66.56
35848;BME280;22332;51.954;20.118;2023-07-13T14:21:38;99928.39;;;24.58;66.46
35848;BME280;22332;51.954;20.118;2023-07-13T14:24:43;99929.54;;;24.55;66.59
35848;BME280;22332;51.954;20.118;2023-07-13T14:27:51;99933.71;;;24.53;66.66
35848;BME280;22332;51.954;20.118;2023-07-13T14:31:00;99921.57;;;24.44;66.46
35848;BME280;22332;51.954;20.118;2023-07-13T14:34:05;99933.30;;;24.44;66.10
35848;BME280;22332;51.954;20.118;2023-07-13T14:37:15;99933.70;;;24.37;66.26
35848;BME280;22332;51.954;20.118;2023-07-13T14:40:28;99935.80;;;24.27;66.36
35848;BME280;22332;51.954;20.118;2023-07-13T14:43:34;99942.55;;;24.15;66.08
35848;BME280;22332;51.954;20.118;2023-07-13T14:46:40;99941.66;;;24.10;67.04
35848;BME280;22332;51.954;20.118;2023-07-13T14:49:46;99946.27;;;24.08;67.07
35848;BME280;22332;51.954;20.118;2023-07-13T14:52:52;99943.33;;;24.05;67.01
35848;BME280;22332;51.954;20.118;2023-07-13T14:55:57;99939.95;;;24.02;67.00
35848;BME280;22332;51.954;20.118;2023-07-13T14:59:03;99945.39;;;24.04;66.90
35848;BME280;22332;51.954;20.118;2023-07-13T15:02:17;99944.77;;;24.06;67.49
35848;BME280;22332;51.954;20.118;2023-07-13T15:05:25;99944.77;;;24.07;67.85
35848;BME280;22332;51.954;20.118;2023-07-13T15:08:31;99947.67;;;24.07;68.17
35848;BME280;22332;51.954;20.118;2023-07-13T15:11:36;99942.30;;;24.05;68.05
35848;BME280;22332;51.954;20.118;2023-07-13T15:14:42;99950.02;;;24.04;68.12
35848;BME280;22332;51.954;20.118;2023-07-13T15:17:48;99951.77;;;24.04;68.57
35848;BME280;22332;51.954;20.118;2023-07-13T15:20:54;99955.42;;;24.07;68.89
35848;BME280;22332;51.954;20.118;2023-07-13T15:24:02;99959.55;;;24.11;69.05
35848;BME280;22332;51.954;20.118;2023-07-13T15:27:12;99954.92;;;24.15;69.23
35848;BME280;22332;51.954;20.118;2023-07-13T15:30:17;99960.65;;;24.14;69.29
35848;BME280;22332;51.954;20.118;2023-07-13T15:33:26;99961.94;;;24.13;69.45
35848;BME280;22332;51.954;20.118;2023-07-13T15:36:32;99957.75;;;24.18;69.45
35848;BME280;22332;51.954;20.118;2023-07-13T15:39:38;99951.70;;;24.24;69.46
35848;BME280;22332;51.954;20.118;2023-07-13T15:42:46;99952.69;;;24.30;68.99
35848;BME280;22332;51.954;20.118;2023-07-13T15:45:54;99947.42;;;24.35;68.79
35848;BME280;22332;51.954;20.118;2023-07-13T15:48:59;99949.33;;;24.39;68.40
35848;BME280;22332;51.954;20.118;2023-07-13T15:52:08;99951.58;;;24.41;68.32
35848;BME280;22332;51.954;20.118;2023-07-13T15:55:17;99953.83;;;24.53;68.39
35848;BME280;22332;51.954;20.118;2023-07-13T15:58:22;99951.86;;;24.68;68.09
35848;BME280;22332;51.954;20.118;2023-07-13T16:01:33;99947.83;;;24.83;67.87
35848;BME280;22332;51.954;20.118;2023-07-13T16:04:41;99950.34;;;24.96;67.75
35848;BME280;22332;51.954;20.118;2023-07-13T16:07:47;99950.60;;;25.04;67.52
35848;BME280;22332;51.954;20.118;2023-07-13T16:10:54;99946.13;;;25.07;67.16
35848;BME280;22332;51.954;20.118;2023-07-13T16:14:00;99949.45;;;25.10;67.00
35848;BME280;22332;51.954;20.118;2023-07-13T16:17:07;99953.84;;;25.12;66.70
35848;BME280;22332;51.954;20.118;2023-07-13T16:20:14;99953.61;;;25.11;66.61
35848;BME280;22332;51.954;20.118;2023-07-13T16:23:20;99946.23;;;25.21;66.60
35848;BME280;22332;51.954;20.118;2023-07-13T16:26:30;99945.59;;;25.29;66.41